createdAt,value
2023-05-24T00:00:20.875Z,8.32
2023-05-24T00:01:20.854Z,8.31
2023-05-24T00:02:20.902Z,8.31
2023-05-24T00:03:20.967Z,8.29
2023-05-24T00:04:20.902Z,8.29
2023-05-24T00:05:20.814Z,8.29
2023-05-24T00:06:20.818Z,8.28
2023-05-24T00:07:20.801Z,8.27
2023-05-24T00:08:20.796Z,8.27
2023-05-24T00:09:20.764Z,8.27
2023-05-24T00:10:20.772Z,8.25
2023-05-24T00:11:20.746Z,8.25
2023-05-24T00:12:20.748Z,8.25
2023-05-24T00:13:20.727Z,8.22
2023-05-24T00:14:20.716Z,8.24
2023-05-24T00:15:20.698Z,8.20
2023-05-24T00:16:20.745Z,8.18
2023-05-24T00:17:20.839Z,8.18
2023-05-24T00:18:20.673Z,8.18
2023-05-24T00:19:20.962Z,8.17
2023-05-24T00:20:21.001Z,8.17
2023-05-24T00:21:20.628Z,8.14
2023-05-24T00:22:20.662Z,8.14
2023-05-24T00:23:20.617Z,8.12
2023-05-24T00:24:20.604Z,8.13
2023-05-24T00:25:20.600Z,8.13
2023-05-24T00:26:20.615Z,8.12
2023-05-24T00:27:20.573Z,8.12
2023-05-24T00:28:20.557Z,8.09
2023-05-24T00:29:20.540Z,8.09
2023-05-24T00:30:20.538Z,8.10
2023-05-24T00:31:20.610Z,8.06
2023-05-24T00:32:20.544Z,8.07
2023-05-24T00:33:20.498Z,8.07
2023-05-24T00:34:20.489Z,8.04
2023-05-24T00:35:20.486Z,8.04
2023-05-24T00:36:20.477Z,8.03
2023-05-24T00:37:20.452Z,8.00
2023-05-24T00:38:20.450Z,8.00
2023-05-24T00:39:20.432Z,8.02
2023-05-24T00:40:20.445Z,8.02
2023-05-24T00:41:20.402Z,8.03
2023-05-24T00:42:20.400Z,8.04
2023-05-24T00:43:20.402Z,8.04
2023-05-24T00:44:20.393Z,8.06
2023-05-24T00:45:20.388Z,8.03
2023-05-24T00:46:20.413Z,8.03
2023-05-24T00:47:20.353Z,7.99
2023-05-24T00:48:20.335Z,7.96
2023-05-24T00:49:20.338Z,7.94
2023-05-24T00:50:20.322Z,7.94
2023-05-24T00:51:20.296Z,7.91
2023-05-24T00:52:20.294Z,7.88
2023-05-24T00:53:20.274Z,7.84
2023-05-24T00:54:20.282Z,7.77
2023-05-24T00:55:20.258Z,7.70
2023-05-24T00:56:20.244Z,7.63
2023-05-24T00:57:20.229Z,7.58
2023-05-24T00:58:20.222Z,7.51
2023-05-24T00:59:20.218Z,7.50
2023-05-24T01:00:20.203Z,7.47
2023-05-24T01:01:20.194Z,7.50
2023-05-24T01:02:20.198Z,7.48
2023-05-24T01:03:20.209Z,7.47
2023-05-24T01:04:20.168Z,7.45
2023-05-24T01:05:20.157Z,7.42
2023-05-24T01:06:20.144Z,7.42
2023-05-24T01:07:20.147Z,7.39
2023-05-24T01:08:20.125Z,7.33
2023-05-24T01:09:20.094Z,7.30
2023-05-24T01:10:20.095Z,7.30
2023-05-24T01:11:20.089Z,7.27
2023-05-24T01:12:20.073Z,7.27
2023-05-24T01:13:20.069Z,7.26
2023-05-24T01:14:20.045Z,7.26
2023-05-24T01:15:20.036Z,7.27
2023-05-24T01:16:20.078Z,7.26
2023-05-24T01:17:20.029Z,7.26
2023-05-24T01:18:20.014Z,7.23
2023-05-24T01:19:19.992Z,7.23
2023-05-24T01:20:20.006Z,7.27
2023-05-24T01:21:19.981Z,7.27
2023-05-24T01:22:19.966Z,7.29
2023-05-24T01:23:19.964Z,7.30
2023-05-24T01:24:19.931Z,7.27
2023-05-24T01:25:19.924Z,7.24
2023-05-24T01:26:19.914Z,7.21
2023-05-24T01:27:19.914Z,7.21
2023-05-24T01:28:19.887Z,7.23
2023-05-24T01:29:19.882Z,7.23
2023-05-24T01:30:19.882Z,7.23
2023-05-24T01:31:19.885Z,7.23
2023-05-24T01:32:19.976Z,7.21
2023-05-24T01:33:19.855Z,7.18
2023-05-24T01:34:19.827Z,7.16
2023-05-24T01:35:19.826Z,7.16
2023-05-24T01:36:19.814Z,7.18
2023-05-24T01:37:19.814Z,7.18
2023-05-24T01:38:19.782Z,7.18
2023-05-24T01:39:19.771Z,7.18
2023-05-24T01:40:19.787Z,7.19
2023-05-24T01:41:19.765Z,7.16
2023-05-24T01:42:19.751Z,7.15
2023-05-24T01:43:19.735Z,7.15
2023-05-24T01:44:19.712Z,7.15
2023-05-24T01:45:19.709Z,7.14
2023-05-24T01:46:19.718Z,7.15
2023-05-24T01:47:19.693Z,7.15
2023-05-24T01:48:19.668Z,7.18
2023-05-24T01:49:19.657Z,7.16
2023-05-24T01:50:19.656Z,7.16
2023-05-24T01:51:19.647Z,7.18
2023-05-24T01:52:19.665Z,7.15
2023-05-24T01:53:19.643Z,7.11
2023-05-24T01:54:19.597Z,7.11
2023-05-24T01:55:19.604Z,7.14
2023-05-24T01:56:19.601Z,7.16
2023-05-24T01:57:19.570Z,7.18
2023-05-24T01:58:19.552Z,7.16
2023-05-24T01:59:19.551Z,7.16
2023-05-24T02:00:19.548Z,7.21
2023-05-24T02:01:19.595Z,7.21
2023-05-24T02:02:19.541Z,7.19
2023-05-24T02:03:19.524Z,7.21
2023-05-24T02:04:19.495Z,7.18
2023-05-24T02:05:19.491Z,7.15
2023-05-24T02:06:19.465Z,7.12
2023-05-24T02:07:19.459Z,7.12
2023-05-24T02:08:19.446Z,7.12
2023-05-24T02:09:19.450Z,7.14
2023-05-24T02:10:19.415Z,7.11
2023-05-24T02:11:19.454Z,7.11
2023-05-24T02:12:19.398Z,7.12
2023-05-24T02:13:19.394Z,7.12
2023-05-24T02:14:19.387Z,7.11
2023-05-24T02:15:19.371Z,7.09
2023-05-24T02:16:19.382Z,7.09
2023-05-24T02:17:19.355Z,7.05
2023-05-24T02:18:19.370Z,7.08
2023-05-24T02:19:19.421Z,7.08
2023-05-24T02:20:19.349Z,7.07
2023-05-24T02:21:19.306Z,7.08
2023-05-24T02:22:19.292Z,7.05
2023-05-24T02:23:19.317Z,7.05
2023-05-24T02:24:19.279Z,7.08
2023-05-24T02:25:19.293Z,7.07
2023-05-24T02:26:19.243Z,7.08
2023-05-24T02:27:19.238Z,7.11
2023-05-24T02:28:19.233Z,7.07
2023-05-24T02:29:19.219Z,7.05
2023-05-24T02:30:19.204Z,7.05
2023-05-24T02:31:19.253Z,7.01
2023-05-24T02:32:19.193Z,7.01
2023-05-24T02:33:19.198Z,7.00
2023-05-24T02:34:19.156Z,7.00
2023-05-24T02:35:19.160Z,7.00
2023-05-24T02:36:19.136Z,7.01
2023-05-24T02:37:19.141Z,6.99
2023-05-24T02:38:19.112Z,6.99
2023-05-24T02:39:19.118Z,6.93
2023-05-24T02:40:19.098Z,6.93
2023-05-24T02:41:19.097Z,6.93
2023-05-24T02:42:19.086Z,6.93
2023-05-24T02:43:19.070Z,6.94
2023-05-24T02:44:19.049Z,6.96
2023-05-24T02:45:19.042Z,6.97
2023-05-24T02:46:19.067Z,7.00
2023-05-24T02:47:19.114Z,6.99
2023-05-24T02:48:19.008Z,6.97
2023-05-24T02:49:18.996Z,6.94
2023-05-24T02:50:18.992Z,6.99
2023-05-24T02:51:18.995Z,6.97
2023-05-24T02:52:18.975Z,6.93
2023-05-24T02:53:18.953Z,6.96
2023-05-24T02:54:18.941Z,6.96
2023-05-24T02:55:18.935Z,6.97
2023-05-24T02:56:18.924Z,6.97
2023-05-24T02:57:18.939Z,6.97
2023-05-24T02:58:18.892Z,6.94
2023-05-24T02:59:18.883Z,6.91
2023-05-24T03:00:18.868Z,6.90
2023-05-24T03:01:18.913Z,6.87
2023-05-24T03:02:18.848Z,6.83
2023-05-24T03:03:18.902Z,6.81
2023-05-24T03:04:18.828Z,6.78
2023-05-24T03:05:18.819Z,6.79
2023-05-24T03:06:18.812Z,6.81
2023-05-24T03:07:18.800Z,6.82
2023-05-24T03:08:18.782Z,6.83
2023-05-24T03:09:18.777Z,6.83
2023-05-24T03:10:18.755Z,6.78
2023-05-24T03:11:18.771Z,6.71
2023-05-24T03:12:18.737Z,6.64
2023-05-24T03:13:18.728Z,6.58
2023-05-24T03:14:18.718Z,6.51
2023-05-24T03:15:18.722Z,6.46
2023-05-24T03:16:18.710Z,6.43
2023-05-24T03:17:18.689Z,6.46
2023-05-24T03:18:18.670Z,6.45
2023-05-24T03:19:18.662Z,6.43
2023-05-24T03:20:18.669Z,6.43
2023-05-24T03:21:18.753Z,6.45
2023-05-24T03:22:18.633Z,6.45
2023-05-24T03:23:18.618Z,6.48
2023-05-24T03:24:18.618Z,6.45
2023-05-24T03:25:18.612Z,6.45
2023-05-24T03:26:18.586Z,6.45
2023-05-24T03:27:18.577Z,6.45
2023-05-24T03:28:18.571Z,6.46
2023-05-24T03:29:18.568Z,6.45
2023-05-24T03:30:18.566Z,6.45
2023-05-24T03:31:18.551Z,6.42
2023-05-24T03:32:18.516Z,6.45
2023-05-24T03:33:18.515Z,6.45
2023-05-24T03:34:18.509Z,6.45
2023-05-24T03:35:18.523Z,6.46
2023-05-24T03:36:18.468Z,6.46
2023-05-24T03:37:18.471Z,6.48
2023-05-24T03:38:18.455Z,6.50
2023-05-24T03:39:18.463Z,6.53
2023-05-24T03:40:18.434Z,6.50
2023-05-24T03:41:18.432Z,6.46
2023-05-24T03:42:18.414Z,6.42
2023-05-24T03:43:18.416Z,6.40
2023-05-24T03:44:18.403Z,6.36
2023-05-24T03:45:27.048Z,6.38
2023-05-24T03:46:18.414Z,6.35
2023-05-24T03:47:18.358Z,6.35
2023-05-24T03:48:18.350Z,6.32
2023-05-24T03:49:18.343Z,6.30
2023-05-24T03:50:18.318Z,6.28
2023-05-24T03:51:18.322Z,6.27
2023-05-24T03:52:18.315Z,6.28
2023-05-24T03:53:18.702Z,6.30
2023-05-24T03:54:18.297Z,6.33
2023-05-24T03:55:18.260Z,6.36
2023-05-24T03:56:18.334Z,6.38
2023-05-24T03:57:18.237Z,6.38
2023-05-24T03:58:18.241Z,6.40
2023-05-24T03:59:18.216Z,6.45
2023-05-24T04:00:18.208Z,6.48
2023-05-24T04:01:32.073Z,6.53
2023-05-24T04:02:18.223Z,6.57
2023-05-24T04:03:18.283Z,6.63
2023-05-24T04:04:18.253Z,6.69
2023-05-24T04:05:18.161Z,6.76
2023-05-24T04:06:18.145Z,6.79
2023-05-24T04:07:18.139Z,6.86
2023-05-24T04:08:18.131Z,6.90
2023-05-24T04:09:18.107Z,6.91
2023-05-24T04:10:18.093Z,6.96
2023-05-24T04:11:18.085Z,6.99
2023-05-24T04:12:18.089Z,6.99
2023-05-24T04:13:18.059Z,6.99
2023-05-24T04:14:18.046Z,7.00
2023-05-24T04:15:18.057Z,7.04
2023-05-24T04:16:18.035Z,7.05
2023-05-24T04:17:18.272Z,7.07
2023-05-24T04:18:18.125Z,7.08
2023-05-24T04:19:17.998Z,7.14
2023-05-24T04:20:18.069Z,7.16
2023-05-24T04:21:17.987Z,7.21
2023-05-24T04:22:17.970Z,7.26
2023-05-24T04:23:17.963Z,7.30
2023-05-24T04:24:17.930Z,7.33
2023-05-24T04:25:18.017Z,7.39
2023-05-24T04:26:17.958Z,7.42
2023-05-24T04:27:17.916Z,7.48
2023-05-24T04:28:17.900Z,7.48
2023-05-24T04:29:17.891Z,7.54
2023-05-24T04:30:17.880Z,7.55
2023-05-24T04:31:17.933Z,7.57
2023-05-24T04:32:17.970Z,7.62
2023-05-24T04:33:17.849Z,7.67
2023-05-24T04:34:17.832Z,7.69
2023-05-24T04:35:17.866Z,7.71
2023-05-24T04:36:17.831Z,7.77
2023-05-24T04:37:17.809Z,7.79
2023-05-24T04:38:18.673Z,7.82
2023-05-24T04:39:17.780Z,7.85
2023-05-24T04:40:17.776Z,7.91
2023-05-24T04:41:17.798Z,7.94
2023-05-24T04:42:17.743Z,7.99
2023-05-24T04:43:17.735Z,8.02
2023-05-24T04:44:17.722Z,8.03
2023-05-24T04:45:17.741Z,8.06
2023-05-24T04:46:17.747Z,8.03
2023-05-24T04:47:17.739Z,8.06
2023-05-24T04:48:17.674Z,8.07
2023-05-24T04:49:17.678Z,8.09
2023-05-24T04:50:17.661Z,8.03
2023-05-24T04:51:17.646Z,8.02
2023-05-24T04:52:17.627Z,8.02
2023-05-24T04:53:17.623Z,8.00
2023-05-24T04:54:17.616Z,8.03
2023-05-24T04:55:17.607Z,8.02
2023-05-24T04:56:17.592Z,7.99
2023-05-24T04:57:17.619Z,7.99
2023-05-24T04:58:17.566Z,7.99
2023-05-24T04:59:17.567Z,8.00
2023-05-24T05:00:17.540Z,7.96
2023-05-24T05:01:17.549Z,8.00
2023-05-24T05:02:17.533Z,8.00
2023-05-24T05:03:17.602Z,8.00
2023-05-24T05:04:17.508Z,8.02
2023-05-24T05:05:17.500Z,8.06
2023-05-24T05:06:17.485Z,8.06
2023-05-24T05:07:17.482Z,8.04
2023-05-24T05:08:17.458Z,8.07
2023-05-24T05:09:17.445Z,8.09
2023-05-24T05:10:17.482Z,8.10
2023-05-24T05:11:17.481Z,8.13
2023-05-24T05:12:17.475Z,8.18
2023-05-24T05:13:17.525Z,8.21
2023-05-24T05:14:17.384Z,8.24
2023-05-24T05:15:17.392Z,8.25
2023-05-24T05:16:17.363Z,8.29
2023-05-24T05:17:17.362Z,8.28
2023-05-24T05:18:17.374Z,8.28
2023-05-24T05:19:17.343Z,8.31
2023-05-24T05:20:17.381Z,8.34
2023-05-24T05:21:17.309Z,8.36
2023-05-24T05:22:17.373Z,8.37
2023-05-24T05:23:17.290Z,8.40
2023-05-24T05:24:17.299Z,8.47
2023-05-24T05:25:17.262Z,8.47
2023-05-24T05:26:17.251Z,8.52
2023-05-24T05:27:17.253Z,8.55
2023-05-24T05:28:17.230Z,8.61
2023-05-24T05:29:17.214Z,8.64
2023-05-24T05:30:17.204Z,8.67
2023-05-24T05:31:17.206Z,8.76
2023-05-24T05:32:17.340Z,8.79
2023-05-24T05:33:17.226Z,8.86
2023-05-24T05:34:17.186Z,8.91
2023-05-24T05:35:17.162Z,8.98
2023-05-24T05:36:17.158Z,9.04
2023-05-24T05:37:17.147Z,9.12
2023-05-24T05:38:17.115Z,9.19
2023-05-24T05:39:17.108Z,9.23
2023-05-24T05:40:17.098Z,9.31
2023-05-24T05:41:17.113Z,9.37
2023-05-24T05:42:17.066Z,9.41
2023-05-24T05:43:17.064Z,9.45
2023-05-24T05:44:17.050Z,9.49
2023-05-24T05:45:17.049Z,9.48
2023-05-24T05:46:17.132Z,9.45
2023-05-24T05:47:17.023Z,9.55
2023-05-24T05:48:17.010Z,9.60
2023-05-24T05:49:17.001Z,9.63
2023-05-24T05:50:16.991Z,9.67
2023-05-24T05:51:16.977Z,9.73
2023-05-24T05:52:16.965Z,9.85
2023-05-24T05:53:16.956Z,9.93
2023-05-24T05:54:16.935Z,10.01
2023-05-24T05:55:16.936Z,10.11
2023-05-24T05:56:16.917Z,10.20
2023-05-24T05:57:16.913Z,10.26
2023-05-24T05:58:16.894Z,10.34
2023-05-24T05:59:16.926Z,10.34
2023-05-24T06:00:16.880Z,10.31
2023-05-24T06:01:16.863Z,10.29
2023-05-24T06:02:16.881Z,10.31
2023-05-24T06:03:17.039Z,10.32
2023-05-24T06:04:16.890Z,10.38
2023-05-24T06:05:16.830Z,10.44
2023-05-24T06:06:16.800Z,10.54
2023-05-24T06:07:16.817Z,10.62
2023-05-24T06:08:16.779Z,10.63
2023-05-24T06:09:16.783Z,10.58
2023-05-24T06:10:16.761Z,10.62
2023-05-24T06:11:16.772Z,10.70
2023-05-24T06:12:16.739Z,10.70
2023-05-24T06:13:16.779Z,10.69
2023-05-24T06:14:16.732Z,10.80
2023-05-24T06:15:16.724Z,10.87
2023-05-24T06:16:16.728Z,10.95
2023-05-24T06:17:16.684Z,11.03
2023-05-24T06:18:16.676Z,11.11
2023-05-24T06:19:16.732Z,11.21
2023-05-24T06:20:16.674Z,11.28
2023-05-24T06:21:16.636Z,11.28
2023-05-24T06:22:16.620Z,11.28
2023-05-24T06:23:16.627Z,11.36
2023-05-24T06:24:16.605Z,11.42
2023-05-24T06:25:16.599Z,11.46
2023-05-24T06:26:16.583Z,11.46
2023-05-24T06:27:16.584Z,11.42
2023-05-24T06:28:16.565Z,11.33
2023-05-24T06:29:16.557Z,11.33
2023-05-24T06:30:16.588Z,11.35
2023-05-24T06:31:16.575Z,11.28
2023-05-24T06:32:16.518Z,11.20
2023-05-24T06:33:16.536Z,11.26
2023-05-24T06:34:16.502Z,11.30
2023-05-24T06:35:16.536Z,11.28
2023-05-24T06:36:16.469Z,11.24
2023-05-24T06:37:16.472Z,11.16
2023-05-24T06:38:16.452Z,11.19
2023-05-24T06:39:16.465Z,11.12
2023-05-24T06:40:16.425Z,11.23
2023-05-24T06:41:16.418Z,11.36
2023-05-24T06:42:16.413Z,11.48
2023-05-24T06:43:16.394Z,11.57
2023-05-24T06:44:16.413Z,11.79
2023-05-24T06:45:16.371Z,11.96
2023-05-24T06:46:16.482Z,12.00
2023-05-24T06:47:16.562Z,12.05
2023-05-24T06:48:16.435Z,12.16
2023-05-24T06:49:16.348Z,12.37
2023-05-24T06:50:16.314Z,12.44
2023-05-24T06:51:16.321Z,12.48
2023-05-24T06:52:16.309Z,12.41
2023-05-24T06:53:16.287Z,12.44
2023-05-24T06:54:16.285Z,12.26
2023-05-24T06:55:16.274Z,12.18
2023-05-24T06:56:16.253Z,12.21
2023-05-24T06:57:16.241Z,12.23
2023-05-24T06:58:16.233Z,12.04
2023-05-24T06:59:16.236Z,11.97
2023-05-24T07:00:16.231Z,12.00
2023-05-24T07:01:16.277Z,12.05
2023-05-24T07:02:16.181Z,12.07
2023-05-24T07:03:16.174Z,12.03
2023-05-24T07:04:16.187Z,12.00
2023-05-24T07:05:16.164Z,11.97
2023-05-24T07:06:16.196Z,11.94
2023-05-24T07:07:16.126Z,11.97
2023-05-24T07:08:16.118Z,12.00
2023-05-24T07:09:16.103Z,11.98
2023-05-24T07:10:16.132Z,12.03
2023-05-24T07:11:16.138Z,12.12
2023-05-24T07:12:16.064Z,12.19
2023-05-24T07:13:16.053Z,12.23
2023-05-24T07:14:16.058Z,12.26
2023-05-24T07:15:16.038Z,12.34
2023-05-24T07:16:16.089Z,12.41
2023-05-24T07:17:16.127Z,12.44
2023-05-24T07:18:16.002Z,12.43
2023-05-24T07:19:15.988Z,12.37
2023-05-24T07:20:16.060Z,12.30
2023-05-24T07:21:15.967Z,12.22
2023-05-24T07:22:15.964Z,12.25
2023-05-24T07:23:15.944Z,12.34
2023-05-24T07:24:16.373Z,12.34
2023-05-24T07:25:15.934Z,12.40
2023-05-24T07:26:15.922Z,12.44
2023-05-24T07:27:15.904Z,12.55
2023-05-24T07:28:15.903Z,12.43
2023-05-24T07:29:15.895Z,12.49
2023-05-24T07:30:30.618Z,12.63
2023-05-24T07:31:15.855Z,12.77
2023-05-24T07:32:15.939Z,12.77
2023-05-24T07:33:15.868Z,12.63
2023-05-24T07:34:15.834Z,12.66
2023-05-24T07:35:15.808Z,12.71
2023-05-24T07:36:15.800Z,12.74
2023-05-24T07:37:15.873Z,12.71
2023-05-24T07:38:15.794Z,12.66
2023-05-24T07:39:15.774Z,12.44
2023-05-24T07:40:15.772Z,12.26
2023-05-24T07:41:15.739Z,12.19
2023-05-24T07:42:15.739Z,12.03
2023-05-24T07:43:15.727Z,12.03
2023-05-24T07:44:15.717Z,12.08
2023-05-24T07:45:15.721Z,12.15
2023-05-24T07:46:15.707Z,12.15
2023-05-24T07:47:15.673Z,12.19
2023-05-24T07:48:15.762Z,12.21
2023-05-24T07:49:15.654Z,12.19
2023-05-24T07:50:15.646Z,12.12
2023-05-24T07:51:15.636Z,12.07
2023-05-24T07:52:15.646Z,12.05
2023-05-24T07:53:15.620Z,12.11
2023-05-24T07:54:15.613Z,12.15
2023-05-24T07:55:15.593Z,12.16
2023-05-24T07:56:15.579Z,12.07
2023-05-24T07:57:15.569Z,12.07
2023-05-24T07:58:15.571Z,12.07
2023-05-24T07:59:15.553Z,12.03
2023-05-24T08:00:15.534Z,12.01
2023-05-24T08:01:15.518Z,12.03
2023-05-24T08:02:15.533Z,12.07
2023-05-24T08:03:15.558Z,12.07
2023-05-24T08:04:15.488Z,12.15
2023-05-24T08:05:15.499Z,12.19
2023-05-24T08:06:15.472Z,12.25
2023-05-24T08:07:15.516Z,12.25
2023-05-24T08:08:15.463Z,12.25
2023-05-24T08:09:15.440Z,12.23
2023-05-24T08:10:15.425Z,12.18
2023-05-24T08:11:15.411Z,12.05
2023-05-24T08:12:17.085Z,12.05
2023-05-24T08:13:15.394Z,12.13
2023-05-24T08:14:15.380Z,12.25
2023-05-24T08:15:15.364Z,12.41
2023-05-24T08:16:15.393Z,12.55
2023-05-24T08:17:15.360Z,12.67
2023-05-24T08:18:15.361Z,12.69
2023-05-24T08:19:15.401Z,12.71
2023-05-24T08:20:15.337Z,12.77
2023-05-24T08:21:15.389Z,12.87
2023-05-24T08:22:15.280Z,12.95
2023-05-24T08:23:15.274Z,13.06
2023-05-24T08:24:15.256Z,13.10
2023-05-24T08:25:15.262Z,13.03
2023-05-24T08:26:15.261Z,13.01
2023-05-24T08:27:15.233Z,12.99
2023-05-24T08:28:15.233Z,12.88
2023-05-24T08:29:15.207Z,12.55
2023-05-24T08:30:15.207Z,12.48
2023-05-24T08:31:15.230Z,12.55
2023-05-24T08:32:15.210Z,12.63
2023-05-24T08:33:15.210Z,12.70
2023-05-24T08:34:15.148Z,12.71
2023-05-24T08:35:20.375Z,12.73
2023-05-24T08:36:15.128Z,12.73
2023-05-24T08:37:16.291Z,12.58
2023-05-24T08:38:15.108Z,12.43
2023-05-24T08:39:15.095Z,12.38
2023-05-24T08:40:15.116Z,12.40
2023-05-24T08:41:15.076Z,12.44
2023-05-24T08:42:15.064Z,12.52
2023-05-24T08:43:15.048Z,12.55
2023-05-24T08:44:15.036Z,12.62
2023-05-24T08:45:15.044Z,12.56
2023-05-24T08:46:15.085Z,12.71
2023-05-24T08:47:15.009Z,12.88
2023-05-24T08:48:15.093Z,13.04
2023-05-24T08:49:15.013Z,13.22
2023-05-24T08:50:14.987Z,13.41
2023-05-24T08:51:14.969Z,14.23
2023-05-24T08:52:15.123Z,14.86
2023-05-24T08:53:15.119Z,14.94
2023-05-24T08:54:14.942Z,14.85
2023-05-24T08:55:14.952Z,14.75
2023-05-24T08:56:14.906Z,14.44
2023-05-24T08:57:14.902Z,14.13
2023-05-24T08:58:14.901Z,13.84
2023-05-24T08:59:14.893Z,13.50
2023-05-24T09:00:14.862Z,13.29
2023-05-24T09:01:14.939Z,13.09
2023-05-24T09:02:14.971Z,13.03
2023-05-24T09:03:14.925Z,12.95
2023-05-24T09:04:14.886Z,12.85
2023-05-24T09:05:14.811Z,12.63
2023-05-24T09:06:14.820Z,12.56
2023-05-24T09:07:14.804Z,12.55
2023-05-24T09:08:14.792Z,12.52
2023-05-24T09:09:14.773Z,12.49
2023-05-24T09:10:14.770Z,12.48
2023-05-24T09:11:14.744Z,12.43
2023-05-24T09:12:19.109Z,12.46
2023-05-24T09:13:14.737Z,12.46
2023-05-24T09:14:14.706Z,12.52
2023-05-24T09:15:14.707Z,12.55
2023-05-24T09:16:14.707Z,12.59
2023-05-24T09:17:14.683Z,12.67
2023-05-24T09:18:14.759Z,12.74
2023-05-24T09:19:14.679Z,12.76
2023-05-24T09:20:14.711Z,12.79
2023-05-24T09:21:14.630Z,12.94
2023-05-24T09:22:14.620Z,12.99
2023-05-24T09:23:14.619Z,13.10
2023-05-24T09:24:14.595Z,13.21
2023-05-24T09:25:14.601Z,13.14
2023-05-24T09:26:14.591Z,13.19
2023-05-24T09:27:14.577Z,13.29
2023-05-24T09:28:14.564Z,13.43
2023-05-24T09:29:14.544Z,13.53
2023-05-24T09:30:14.543Z,13.63
2023-05-24T09:31:14.596Z,13.80
2023-05-24T09:32:14.533Z,13.96
2023-05-24T09:33:14.515Z,14.13
2023-05-24T09:34:14.484Z,14.30
2023-05-24T09:35:14.484Z,14.39
2023-05-24T09:36:14.472Z,14.41
2023-05-24T09:37:14.517Z,14.16
2023-05-24T09:38:14.438Z,14.12
2023-05-24T09:39:14.509Z,14.02
2023-05-24T09:40:14.412Z,14.06
2023-05-24T09:41:14.414Z,14.12
2023-05-24T09:42:14.395Z,14.12
2023-05-24T09:43:14.402Z,14.13
2023-05-24T09:44:14.367Z,14.24
2023-05-24T09:45:14.388Z,14.29
2023-05-24T09:46:14.352Z,14.27
2023-05-24T09:47:14.466Z,14.21
2023-05-24T09:48:14.339Z,14.06
2023-05-24T09:49:14.320Z,13.79
2023-05-24T09:50:14.302Z,13.66
2023-05-24T09:51:14.348Z,13.72
2023-05-24T09:52:14.288Z,13.59
2023-05-24T09:53:14.293Z,13.38
2023-05-24T09:54:14.257Z,13.31
2023-05-24T09:55:14.253Z,13.41
2023-05-24T09:56:14.247Z,13.51
2023-05-24T09:57:14.222Z,13.57
2023-05-24T09:58:14.314Z,13.59
2023-05-24T09:59:14.215Z,13.41
2023-05-24T10:00:14.289Z,13.28
2023-05-24T10:01:14.292Z,13.32
2023-05-24T10:02:14.163Z,13.29
2023-05-24T10:03:14.271Z,13.27
2023-05-24T10:04:14.266Z,13.32
2023-05-24T10:05:14.152Z,13.36
2023-05-24T10:06:14.121Z,13.43
2023-05-24T10:07:14.126Z,13.38
2023-05-24T10:08:14.127Z,13.28
2023-05-24T10:09:14.207Z,13.21
2023-05-24T10:10:14.098Z,13.22
2023-05-24T10:11:14.113Z,13.27
2023-05-24T10:12:14.067Z,13.19
2023-05-24T10:13:14.084Z,13.17
2023-05-24T10:14:14.058Z,13.10
2023-05-24T10:15:14.043Z,13.07
2023-05-24T10:16:14.055Z,13.17
2023-05-24T10:17:14.135Z,13.24
2023-05-24T10:18:14.450Z,13.31
2023-05-24T10:19:13.987Z,13.39
2023-05-24T10:20:14.003Z,13.50
2023-05-24T10:21:13.991Z,13.66
2023-05-24T10:22:14.010Z,13.79
2023-05-24T10:23:13.927Z,13.87
2023-05-24T10:24:14.079Z,14.01
2023-05-24T10:25:13.922Z,14.05
2023-05-24T10:26:13.907Z,14.17
2023-05-24T10:27:13.916Z,14.27
2023-05-24T10:28:13.887Z,14.27
2023-05-24T10:29:13.893Z,14.46
2023-05-24T10:30:14.243Z,14.72
2023-05-24T10:31:13.886Z,14.91
2023-05-24T10:32:13.836Z,14.97
2023-05-24T10:33:13.833Z,15.11
2023-05-24T10:34:13.820Z,15.20
2023-05-24T10:35:13.794Z,15.11
2023-05-24T10:36:13.792Z,15.05
2023-05-24T10:37:13.770Z,15.15
2023-05-24T10:38:13.772Z,15.19
2023-05-24T10:39:13.764Z,15.12
2023-05-24T10:40:13.763Z,15.05
2023-05-24T10:41:13.740Z,15.04
2023-05-24T10:42:13.743Z,14.93
2023-05-24T10:43:13.721Z,14.75
2023-05-24T10:44:13.716Z,14.64
2023-05-24T10:45:13.676Z,14.67
2023-05-24T10:46:13.822Z,14.78
2023-05-24T10:47:13.676Z,14.83
2023-05-24T10:48:13.963Z,14.91
2023-05-24T10:49:13.637Z,14.83
2023-05-24T10:50:13.643Z,14.72
2023-05-24T10:51:13.624Z,14.66
2023-05-24T10:52:13.616Z,14.61
2023-05-24T10:53:13.614Z,14.67
2023-05-24T10:54:13.596Z,14.60
2023-05-24T10:55:13.586Z,14.36
2023-05-24T10:56:13.558Z,14.26
2023-05-24T10:57:13.557Z,14.02
2023-05-24T10:58:13.552Z,13.91
2023-05-24T10:59:13.525Z,13.81
2023-05-24T11:00:15.778Z,13.75
2023-05-24T11:01:13.544Z,13.69
2023-05-24T11:02:13.885Z,13.75
2023-05-24T11:03:13.536Z,13.79
2023-05-24T11:04:13.469Z,13.80
2023-05-24T11:05:13.512Z,13.72
2023-05-24T11:06:13.458Z,13.72
2023-05-24T11:07:13.445Z,13.81
2023-05-24T11:08:13.435Z,13.81
2023-05-24T11:09:13.412Z,13.83
2023-05-24T11:10:13.404Z,13.84
2023-05-24T11:12:13.396Z,13.99
2023-05-24T11:13:13.375Z,14.05
2023-05-24T11:14:13.367Z,14.05
2023-05-24T11:15:13.355Z,14.01
2023-05-24T11:16:13.367Z,13.96
2023-05-24T11:17:13.320Z,14.01
2023-05-24T11:18:13.382Z,14.01
2023-05-24T11:19:13.394Z,13.99
2023-05-24T11:20:13.326Z,13.90
2023-05-24T11:21:13.289Z,13.94
2023-05-24T11:22:13.286Z,13.93
2023-05-24T11:23:13.260Z,13.90
2023-05-24T11:24:13.278Z,13.86
2023-05-24T11:25:13.235Z,13.90
2023-05-24T11:26:13.236Z,13.86
2023-05-24T11:27:13.212Z,13.88
2023-05-24T11:28:13.238Z,13.90
2023-05-24T11:29:13.194Z,13.86
2023-05-24T11:30:13.203Z,13.88
2023-05-24T11:31:13.194Z,13.94
2023-05-24T11:32:13.282Z,14.01
2023-05-24T11:33:13.205Z,14.09
2023-05-24T11:34:13.143Z,14.11
2023-05-24T11:35:13.140Z,14.19
2023-05-24T11:36:13.131Z,14.19
2023-05-24T11:37:15.974Z,14.12
2023-05-24T11:38:13.109Z,14.19
2023-05-24T11:39:13.077Z,14.27
2023-05-24T11:40:13.086Z,14.31
2023-05-24T11:41:13.055Z,14.26
2023-05-24T11:42:13.051Z,14.05
2023-05-24T11:43:15.170Z,14.09
2023-05-24T11:44:13.038Z,14.20
2023-05-24T11:45:13.016Z,14.27
2023-05-24T11:46:13.078Z,14.35
2023-05-24T11:47:12.990Z,14.42
2023-05-24T11:48:13.055Z,14.44
2023-05-24T11:49:12.977Z,14.29
2023-05-24T11:50:12.967Z,14.17
2023-05-24T11:51:12.942Z,14.17
2023-05-24T11:52:12.936Z,14.13
2023-05-24T11:53:12.923Z,14.08
2023-05-24T11:54:12.942Z,14.11
2023-05-24T11:55:14.352Z,14.24
2023-05-24T11:56:12.892Z,14.26
2023-05-24T11:57:12.892Z,14.29
2023-05-24T11:58:12.879Z,14.09
2023-05-24T11:59:12.867Z,14.04
2023-05-24T12:00:12.862Z,14.16
2023-05-24T12:01:12.827Z,14.29
2023-05-24T12:02:12.844Z,14.34
2023-05-24T12:03:12.913Z,14.38
2023-05-24T12:04:13.247Z,14.41
2023-05-24T12:05:12.781Z,14.42
2023-05-24T12:06:12.777Z,14.38
2023-05-24T12:07:12.793Z,14.27
2023-05-24T12:08:12.891Z,14.30
2023-05-24T12:09:12.737Z,14.30
2023-05-24T12:10:12.738Z,14.27
2023-05-24T12:11:12.716Z,14.16
2023-05-24T12:12:12.718Z,14.08
2023-05-24T12:13:12.720Z,14.11
2023-05-24T12:14:12.728Z,14.19
2023-05-24T12:15:12.678Z,14.20
2023-05-24T12:16:12.700Z,14.19
2023-05-24T12:17:12.663Z,14.24
2023-05-24T12:18:12.679Z,14.29
2023-05-24T12:19:23.981Z,14.24
2023-05-24T12:20:12.652Z,14.27
2023-05-24T12:21:12.606Z,14.27
2023-05-24T12:22:12.612Z,14.30
2023-05-24T12:23:12.586Z,14.41
2023-05-24T12:24:12.580Z,14.45
2023-05-24T12:25:12.573Z,14.41
2023-05-24T12:26:12.559Z,14.36
2023-05-24T12:27:12.564Z,14.42
2023-05-24T12:28:12.527Z,14.49
2023-05-24T12:29:12.520Z,14.64
2023-05-24T12:30:12.501Z,14.66
2023-05-24T12:31:12.532Z,14.75
2023-05-24T12:32:13.710Z,14.79
2023-05-24T12:33:12.501Z,14.97
2023-05-24T12:34:12.460Z,15.00
2023-05-24T12:35:12.464Z,14.97
2023-05-24T12:36:12.451Z,15.03
2023-05-24T12:37:13.206Z,14.98
2023-05-24T12:38:12.457Z,14.98
2023-05-24T12:39:12.410Z,14.79
2023-05-24T12:40:12.388Z,14.85
2023-05-24T12:41:13.942Z,14.91
2023-05-24T12:42:12.492Z,14.93
2023-05-24T12:43:12.362Z,15.03
2023-05-24T12:44:12.351Z,15.09
2023-05-24T12:45:12.347Z,15.05
2023-05-24T12:46:12.330Z,15.11
2023-05-24T12:47:12.449Z,15.09
2023-05-24T12:48:12.322Z,15.13
2023-05-24T12:49:12.291Z,15.16
2023-05-24T12:50:12.308Z,15.25
2023-05-24T12:51:12.279Z,15.33
2023-05-24T12:52:12.606Z,15.35
2023-05-24T12:53:12.249Z,15.40
2023-05-24T12:54:12.243Z,15.30
2023-05-24T12:55:12.251Z,15.22
2023-05-24T12:56:12.206Z,15.18
2023-05-24T12:57:12.203Z,15.16
2023-05-24T12:58:12.188Z,15.12
2023-05-24T12:59:12.199Z,15.12
2023-05-24T13:00:12.169Z,15.19
2023-05-24T13:01:12.178Z,15.20
2023-05-24T13:02:12.146Z,15.12
2023-05-24T13:03:12.268Z,15.13
2023-05-24T13:04:12.133Z,15.12
2023-05-24T13:05:12.156Z,15.11